Time;durP1;ratioP1;P1;durP2;ratioP2;P2;SDS_P1;SDS_P2;PMS_P1;PMS_P2;Temp;Humidity;BMP_temperature;BMP_pressure;BME280_temperature;BME280_humidity;BME280_pressure;Samples;Min_cycle;Max_cycle;Signal;HPM_P1;HPM_P2
2022/07/25 00:01:57;;;;;;;1.20;1.10;;;;;;;18.12;59.70;98448.23;1690269;84;28128;-88
2022/07/25 00:04:23;;;;;;;2.42;1.10;;;;;;;18.05;60.02;98450.70;1673513;83;28165;-88
2022/07/25 00:06:52;;;;;;;3.67;0.98;;;;;;;18.12;60.32;98446.42;1680760;82;28144;-84
2022/07/25 00:09:18;;;;;;;1.85;1.07;;;;;;;18.18;60.49;98437.03;1681413;83;28181;-84
2022/07/25 00:11:44;;;;;;;2.80;1.35;;;;;;;18.22;60.70;98443.70;1691114;82;28107;-88
2022/07/25 00:14:11;;;;;;;1.35;1.20;;;;;;;18.21;60.82;98436.73;1678011;83;28054;-85
2022/07/25 00:16:44;;;;;;;2.72;1.27;;;;;;;18.14;60.89;98437.84;1679176;84;28013;-87
2022/07/25 00:19:10;;;;;;;1.40;1.10;;;;;;;18.03;60.99;98434.61;1677428;83;28019;-88
2022/07/25 00:21:42;;;;;;;2.17;1.22;;;;;;;17.95;61.13;98436.69;1683862;84;42317;-85
2022/07/25 00:24:14;;;;;;;1.35;1.17;;;;;;;18.00;61.31;98432.28;1680964;83;28084;-88
2022/07/25 00:26:40;;;;;;;2.45;1.00;;;;;;;18.02;61.45;98424.50;1683336;82;28055;-85
2022/07/25 00:29:07;;;;;;;1.10;1.00;;;;;;;18.01;61.60;98425.48;1677710;83;28112;-85
2022/07/25 00:31:33;;;;;;;1.10;1.00;;;;;;;17.86;61.85;98419.08;1681640;83;28102;-89
2022/07/25 00:34:02;;;;;;;2.25;0.98;;;;;;;17.86;62.03;98415.95;1684996;84;28042;-85
2022/07/25 00:36:30;;;;;;;1.30;1.10;;;;;;;17.90;62.15;98412.00;1655105;84;28159;-86
2022/07/25 00:38:57;;;;;;;1.75;0.98;;;;;;;17.95;62.23;98416.83;1681644;84;28077;-88
2022/07/25 00:41:30;;;;;;;2.15;0.98;;;;;;;17.95;62.38;98404.91;1671917;83;28115;-88
2022/07/25 00:43:56;;;;;;;2.62;0.95;;;;;;;17.92;62.60;98410.04;1638301;85;28098;-86
2022/07/25 00:46:22;;;;;;;2.02;1.15;;;;;;;17.86;62.74;98409.33;1661143;83;28605;-88
2022/07/25 00:48:48;;;;;;;1.25;1.15;;;;;;;17.85;62.82;98399.71;1662265;84;28042;-85
2022/07/25 00:51:16;;;;;;;1.27;1.17;;;;;;;17.71;62.97;98405.56;1664490;83;28179;-85
2022/07/25 00:53:44;;;;;;;1.20;1.10;;;;;;;17.56;63.26;98402.57;1632432;86;28108;-85
2022/07/25 00:56:15;;;;;;;1.47;1.00;;;;;;;17.60;63.58;98404.47;1666002;83;28071;-85
2022/07/25 00:58:44;;;;;;;1.60;1.17;;;;;;;17.66;63.80;98402.55;1663913;83;27992;-88
2022/07/25 01:01:10;;;;;;;1.67;0.93;;;;;;;17.66;64.09;98408.33;1653275;84;28063;-88
2022/07/25 01:03:36;;;;;;;1.80;0.98;;;;;;;17.70;64.24;98399.09;1635308;85;28143;-84
2022/07/25 01:06:03;;;;;;;2.75;1.20;;;;;;;17.70;64.28;98399.92;1628394;86;28181;-88
2022/07/25 01:08:32;;;;;;;1.45;0.93;;;;;;;17.72;64.33;98407.23;1656340;84;28072;-85
2022/07/25 01:10:58;;;;;;;1.35;1.00;;;;;;;17.72;64.41;98403.75;1656631;84;28104;-85
2022/07/25 01:13:25;;;;;;;1.90;1.25;;;;;;;17.69;64.45;98397.42;1651596;84;28106;-88
2022/07/25 01:15:51;;;;;;;2.30;1.32;;;;;;;17.64;64.50;98401.85;1654195;84;28093;-89
2022/07/25 01:18:22;;;;;;;4.75;1.40;;;;;;;17.49;64.49;98402.86;1659447;84;28113;-88
2022/07/25 01:20:49;;;;;;;1.55;1.45;;;;;;;17.35;64.58;98402.53;1650772;84;28006;-84
2022/07/25 01:23:15;;;;;;;1.70;1.20;;;;;;;17.35;64.90;98394.59;1660845;84;28177;-84
2022/07/25 01:25:44;;;;;;;1.57;1.02;;;;;;;17.43;65.21;98392.87;1631691;85;28074;-84
2022/07/25 01:28:11;;;;;;;1.95;1.22;;;;;;;17.48;65.52;98395.06;1656578;84;28101;-85
2022/07/25 01:30:38;;;;;;;2.92;1.20;;;;;;;17.49;65.72;98398.05;1655389;84;28154;-84
2022/07/25 01:33:04;;;;;;;2.17;1.30;;;;;;;17.51;65.86;98398.75;1656247;84;28188;-87
2022/07/25 01:35:30;;;;;;;3.30;1.10;;;;;;;17.49;65.99;98395.41;1656228;84;27988;-84
2022/07/25 01:37:57;;;;;;;1.40;1.22;;;;;;;17.45;66.04;98392.73;1657658;84;28054;-84
2022/07/25 01:40:23;;;;;;;3.02;1.32;;;;;;;17.41;66.10;98394.83;1655468;84;28189;-84
2022/07/25 01:42:52;;;;;;;1.32;1.05;;;;;;;17.37;66.28;98397.44;1658435;84;28005;-84
2022/07/25 01:45:18;;;;;;;1.10;1.00;;;;;;;17.14;66.42;98394.88;1657011;84;28097;-88
2022/07/25 01:47:45;;;;;;;1.57;1.10;;;;;;;16.87;66.65;98389.62;1658646;84;28072;-89
2022/07/25 01:50:18;;;;;;;2.52;1.17;;;;;;;16.70;67.03;98391.23;1659085;84;28039;-85
2022/07/25 01:52:44;;;;;;;3.33;1.20;;;;;;;16.54;67.43;98389.19;1658729;84;28116;-87
2022/07/25 01:55:12;;;;;;;2.25;1.05;;;;;;;16.41;67.93;98381.27;1658628;84;28094;-88
2022/07/25 01:57:41;;;;;;;1.67;1.10;;;;;;;16.29;68.39;98381.93;1658722;84;27983;-88
2022/07/25 02:00:12;;;;;;;1.75;1.00;;;;;;;16.24;68.85;98377.57;1658721;84;28168;-88
2022/07/25 02:02:39;;;;;;;1.27;0.98;;;;;;;16.21;69.37;98376.03;1658777;84;28194;-88
2022/07/25 02:05:07;;;;;;;2.12;1.27;;;;;;;16.19;69.87;98371.89;1659679;84;28083;-85
2022/07/25 02:07:41;;;;;;;1.27;1.00;;;;;;;16.32;70.50;98367.94;1658995;83;28197;-88
2022/07/25 02:10:13;;;;;;;1.52;1.10;;;;;;;16.44;70.99;98376.52;1658949;85;28146;-88
2022/07/25 02:12:39;;;;;;;2.58;1.10;;;;;;;16.38;71.39;98372.30;1658367;84;28021;-85
2022/07/25 02:15:06;;;;;;;2.35;1.10;;;;;;;16.35;71.87;98372.11;1658593;84;28116;-88
2022/07/25 02:17:35;;;;;;;2.02;1.22;;;;;;;16.41;72.29;98358.33;1658749;84;28146;-91
2022/07/25 02:20:05;;;;;;;1.30;1.00;;;;;;;16.55;72.63;98379.45;1658421;84;28069;-88
2022/07/25 02:22:31;;;;;;;1.85;1.60;;;;;;;16.43;72.87;98372.69;1658668;84;28076;-85
2022/07/25 02:25:04;;;;;;;2.25;1.27;;;;;;;16.42;73.17;98372.38;1658891;84;28123;-88
2022/07/25 02:27:33;;;;;;;3.87;1.15;;;;;;;16.51;73.49;98370.17;1658709;84;28098;-88
2022/07/25 02:30:01;;;;;;;1.82;1.22;;;;;;;16.66;73.67;98376.66;1661631;84;28131;-87
2022/07/25 02:32:27;;;;;;;2.17;1.07;;;;;;;16.73;73.67;98373.78;1658982;84;42228;-84
2022/07/25 02:34:55;;;;;;;2.80;1.40;;;;;;;16.82;73.62;98370.24;1658899;84;28157;-83
2022/07/25 02:37:25;;;;;;;2.42;1.00;;;;;;;16.88;73.58;98376.75;1656635;84;28024;-88
2022/07/25 02:39:51;;;;;;;2.47;1.40;;;;;;;16.86;73.54;98378.70;1657632;84;28054;-88
2022/07/25 02:42:17;;;;;;;1.52;1.40;;;;;;;16.81;73.55;98373.86;1669045;84;28058;-84
2022/07/25 02:44:45;;;;;;;1.20;1.07;;;;;;;16.67;73.51;98379.65;1675396;83;28080;-86
2022/07/25 02:47:11;;;;;;;1.52;1.00;;;;;;;16.46;73.50;98375.06;1675706;83;28060;-88
2022/07/25 02:49:37;;;;;;;1.70;1.52;;;;;;;16.27;73.55;98388.66;1675723;83;28060;-84
2022/07/25 02:52:03;;;;;;;1.98;1.10;;;;;;;16.11;73.66;98392.39;1673125;84;28150;-85
2022/07/25 02:54:31;;;;;;;2.98;1.27;;;;;;;15.90;73.79;98389.11;1676010;83;28190;-88
2022/07/25 02:56:57;;;;;;;2.72;1.17;;;;;;;15.71;74.04;98382.03;1673241;83;28130;-85
2022/07/25 02:59:23;;;;;;;1.95;1.22;;;;;;;15.67;74.50;98381.14;1676063;84;28080;-87
2022/07/25 03:01:51;;;;;;;2.87;1.17;;;;;;;15.85;75.17;98385.58;1675960;85;28011;-85
2022/07/25 03:04:17;;;;;;;1.87;1.30;;;;;;;15.82;75.49;98385.84;1671010;83;28082;-85
2022/07/25 03:06:45;;;;;;;2.85;1.10;;;;;;;15.72;75.79;98388.98;1680440;83;28161;-85
2022/07/25 03:09:12;;;;;;;1.57;1.20;;;;;;;15.57;76.21;98385.11;1678397;83;28023;-84
2022/07/25 03:11:38;;;;;;;2.42;1.30;;;;;;;15.47;76.71;98386.89;1675888;83;28080;-86
2022/07/25 03:14:07;;;;;;;1.30;1.10;;;;;;;15.39;77.12;98394.16;1679548;83;28081;-86
2022/07/25 03:16:33;;;;;;;1.72;1.17;;;;;;;15.40;77.67;98391.88;1679816;83;28126;-84
2022/07/25 03:18:59;;;;;;;1.60;1.07;;;;;;;15.44;78.21;98391.11;1677290;83;28086;-85
2022/07/25 03:21:26;;;;;;;2.35;1.20;;;;;;;15.56;78.75;98399.75;1679480;83;28086;-85
2022/07/25 03:23:52;;;;;;;2.08;1.60;;;;;;;15.48;79.09;98392.03;1673868;83;28125;-85
2022/07/25 03:26:28;;;;;;;2.72;1.30;;;;;;;15.35;79.46;98390.14;1678385;83;28074;-87
2022/07/25 03:28:54;;;;;;;1.22;1.12;;;;;;;15.27;79.83;98394.45;1675111;83;28116;-88
2022/07/25 03:31:20;;;;;;;1.85;1.17;;;;;;;15.17;80.26;98395.73;1679024;83;28090;-88
2022/07/25 03:33:46;;;;;;;1.85;1.07;;;;;;;15.13;80.71;98391.72;1674051;83;28114;-85
2022/07/25 03:36:16;;;;;;;2.58;1.25;;;;;;;15.10;81.13;98388.05;1676111;83;28180;-85
2022/07/25 03:38:44;;;;;;;3.47;1.20;;;;;;;15.03;81.58;98386.92;1681253;83;28055;-85
2022/07/25 03:41:11;;;;;;;2.95;1.22;;;;;;;15.04;82.10;98384.16;1678449;83;28024;-88
2022/07/25 03:43:37;;;;;;;1.30;1.17;;;;;;;15.08;82.65;98378.95;1675147;83;28087;-84
2022/07/25 03:46:03;;;;;;;1.62;1.10;;;;;;;15.11;83.15;98373.88;1678379;83;28160;-85
2022/07/25 03:48:30;;;;;;;1.30;1.10;;;;;;;15.16;83.72;98370.37;1674455;83;28082;-88
2022/07/25 03:50:56;;;;;;;3.95;1.10;;;;;;;15.21;84.26;98376.06;1680852;83;28095;-85
2022/07/25 03:53:23;;;;;;;1.25;1.10;;;;;;;15.27;84.80;98374.68;1675810;83;28049;-85
2022/07/25 03:55:52;;;;;;;1.77;1.20;;;;;;;15.29;85.26;98373.55;1660546;83;28030;-85
2022/07/25 03:58:18;;;;;;;3.87;1.20;;;;;;;15.42;85.77;98374.12;1648196;84;28103;-84
2022/07/25 04:00:47;;;;;;;1.47;1.12;;;;;;;15.67;86.34;98381.14;1633983;85;28066;-86
2022/07/25 04:03:14;;;;;;;1.20;1.10;;;;;;;15.78;86.62;98373.08;1641934;85;28157;-84
2022/07/25 04:05:41;;;;;;;1.82;1.25;;;;;;;16.02;86.99;98378.74;1665452;84;28005;-88
2022/07/25 04:08:08;;;;;;;2.47;1.52;;;;;;;16.21;87.20;98377.35;1659337;84;28101;-85
2022/07/25 04:10:34;;;;;;;1.55;1.20;;;;;;;16.31;87.36;98376.83;1667887;83;28092;-87
2022/07/25 04:13:02;;;;;;;1.87;1.55;;;;;;;16.43;87.51;98375.33;1663479;83;28010;-86
2022/07/25 04:15:39;;;;;;;1.37;1.12;;;;;;;16.62;87.78;98368.69;1664945;85;28062;-87
2022/07/25 04:18:05;;;;;;;3.17;1.10;;;;;;;16.84;88.06;98368.30;1663308;85;28150;-87
2022/07/25 04:20:31;;;;;;;2.85;1.67;;;;;;;17.00;88.12;98368.48;1670731;83;28185;-85
2022/07/25 04:22:57;;;;;;;2.02;1.42;;;;;;;17.23;88.31;98371.52;1667793;85;28091;-86
2022/07/25 04:25:29;;;;;;;2.67;1.27;;;;;;;17.49;88.49;98365.81;1662835;84;28141;-86
2022/07/25 04:27:59;;;;;;;1.77;1.30;;;;;;;17.71;88.37;98367.67;1671689;83;28063;-86
2022/07/25 04:30:25;;;;;;;1.80;1.40;;;;;;;17.81;87.95;98360.47;1675743;83;28184;-89
2022/07/25 04:32:51;;;;;;;1.92;1.40;;;;;;;17.84;87.48;98358.33;1676114;83;28036;-85
2022/07/25 04:35:20;;;;;;;3.85;1.45;;;;;;;17.83;87.05;98356.70;1680725;83;28073;-87
2022/07/25 04:37:47;;;;;;;1.47;1.37;;;;;;;17.82;86.64;98357.67;1675979;84;28105;-87
2022/07/25 04:40:15;;;;;;;2.90;1.20;;;;;;;17.83;86.23;98359.34;1662611;83;28069;-87
2022/07/25 04:42:41;;;;;;;2.10;1.60;;;;;;;17.82;85.90;98356.84;1678636;83;28118;-88
2022/07/25 04:45:08;;;;;;;1.67;1.40;;;;;;;17.78;85.63;98356.30;1665193;84;28129;-86
2022/07/25 04:47:36;;;;;;;3.12;1.42;;;;;;;17.77;85.46;98355.16;1665248;84;28098;-87
2022/07/25 04:50:03;;;;;;;2.22;1.30;;;;;;;17.80;85.49;98359.63;1672743;84;28074;-87
2022/07/25 04:52:29;;;;;;;1.98;1.55;;;;;;;17.83;85.35;98363.31;1678168;83;28029;-86
2022/07/25 04:54:57;;;;;;;2.52;1.72;;;;;;;17.82;85.27;98362.97;1684860;82;28168;-86
2022/07/25 04:57:23;;;;;;;2.60;1.70;;;;;;;17.84;85.34;98363.63;1677432;83;28150;-86
2022/07/25 04:59:49;;;;;;;2.65;1.45;;;;;;;17.83;85.25;98367.28;1688344;83;28023;-89
2022/07/25 05:02:21;;;;;;;2.92;1.82;;;;;;;17.83;85.31;98369.93;1672031;84;28098;-88
2022/07/25 05:04:47;;;;;;;3.08;1.98;;;;;;;17.85;85.49;98369.27;1664537;84;28082;-89
2022/07/25 05:07:13;;;;;;;1.80;1.45;;;;;;;17.90;85.74;98376.25;1659860;85;28109;-89
2022/07/25 05:09:40;;;;;;;3.60;1.90;;;;;;;17.92;86.00;98372.97;1658394;85;28063;-88
2022/07/25 05:12:06;;;;;;;3.47;1.62;;;;;;;17.98;86.10;98373.67;1656808;85;28108;-88
2022/07/25 05:14:34;;;;;;;2.15;1.72;;;;;;;18.06;86.28;98361.45;1643614;85;28180;-87
2022/07/25 05:17:00;;;;;;;2.62;1.75;;;;;;;18.06;86.40;98355.66;1656660;84;28143;-84
2022/07/25 05:19:26;;;;;;;3.12;1.98;;;;;;;18.14;86.69;98353.57;1655699;85;28146;-83
2022/07/25 05:21:52;;;;;;;2.08;1.60;;;;;;;18.23;87.00;98353.95;1678098;83;28106;-86
2022/07/25 05:24:18;;;;;;;2.60;1.62;;;;;;;18.38;87.25;98351.07;1671171;84;28158;-84
2022/07/25 05:26:45;;;;;;;2.98;2.00;;;;;;;18.49;87.46;98344.66;1659603;84;28089;-83
2022/07/25 05:29:13;;;;;;;2.27;1.90;;;;;;;18.55;87.57;98347.52;1655145;85;28212;-87
2022/07/25 05:31:42;;;;;;;4.92;1.80;;;;;;;18.69;87.71;98341.63;1664264;85;28165;-87
2022/07/25 05:34:08;;;;;;;2.00;1.50;;;;;;;18.83;87.75;98338.00;1657079;85;28171;-87
2022/07/25 05:36:36;;;;;;;3.08;2.00;;;;;;;18.89;87.71;98342.66;1659254;84;28106;-88
2022/07/25 05:39:06;;;;;;;4.50;1.98;;;;;;;18.93;87.67;98344.02;1664966;85;40545;-84
2022/07/25 05:41:32;;;;;;;1.98;1.77;;;;;;;19.07;87.79;98344.70;1671182;84;28145;-85
2022/07/25 05:44:00;;;;;;;2.80;1.82;;;;;;;19.19;87.79;98340.76;1669644;84;28035;-85
2022/07/25 05:46:26;;;;;;;4.67;1.90;;;;;;;19.30;87.58;98339.11;1672809;84;28191;-85
2022/07/25 05:48:52;;;;;;;2.22;1.40;;;;;;;19.41;87.17;98337.47;1671286;84;28140;-89
2022/07/25 05:51:21;;;;;;;3.87;1.67;;;;;;;19.51;86.78;98342.64;1668346;85;28074;-84
2022/07/25 05:53:50;;;;;;;2.72;1.40;;;;;;;19.57;86.44;98340.16;1675161;83;28101;-87
2022/07/25 05:56:16;;;;;;;3.37;1.75;;;;;;;19.43;85.79;98339.44;1672638;84;28095;-88
2022/07/25 05:58:43;;;;;;;1.70;1.30;;;;;;;19.36;85.35;98341.11;1646746;85;28178;-85
2022/07/25 06:01:14;;;;;;;2.70;2.17;;;;;;;19.34;85.06;98339.61;1674056;84;28145;-85
2022/07/25 06:03:45;;;;;;;1.37;1.10;;;;;;;19.33;84.87;98345.41;1673034;84;28185;-85
2022/07/25 06:06:12;;;;;;;2.50;1.77;;;;;;;19.31;84.74;98337.30;1671809;84;28070;-88
2022/07/25 06:08:38;;;;;;;3.27;1.45;;;;;;;19.41;84.92;98336.63;1670748;84;28168;-87
2022/07/25 06:11:06;;;;;;;3.80;1.75;;;;;;;19.48;84.94;98329.68;1670974;83;28102;-87
2022/07/25 06:13:33;;;;;;;3.12;1.95;;;;;;;19.36;84.26;98328.34;1670911;83;28023;-84
2022/07/25 06:15:59;;;;;;;2.40;1.40;;;;;;;19.34;84.07;98329.82;1674933;84;28172;-88
2022/07/25 06:18:29;;;;;;;3.62;1.30;;;;;;;19.45;84.29;98329.53;1670317;84;28164;-88
2022/07/25 06:21:05;;;;;;;3.65;1.32;;;;;;;19.62;84.69;98328.54;1672956;84;28079;-88
2022/07/25 06:23:31;;;;;;;2.52;1.47;;;;;;;19.77;84.91;98329.18;1672053;85;28035;-87
2022/07/25 06:26:03;;;;;;;2.60;1.20;;;;;;;19.92;85.18;98324.34;1672197;83;28079;-87
2022/07/25 06:28:30;;;;;;;1.62;1.40;;;;;;;20.02;85.21;98316.18;1651399;84;28087;-87
2022/07/25 06:30:56;;;;;;;2.77;1.57;;;;;;;20.12;85.14;98310.70;1653323;86;28197;-85
2022/07/25 06:33:22;;;;;;;1.92;1.30;;;;;;;20.20;85.11;98309.33;1622884;86;28112;-85
2022/07/25 06:35:48;;;;;;;1.72;1.32;;;;;;;20.28;85.07;98315.47;1657208;84;28104;-89
2022/07/25 06:38:14;;;;;;;2.35;1.20;;;;;;;20.34;85.03;98313.98;1657931;85;28107;-85
2022/07/25 06:40:40;;;;;;;2.00;1.80;;;;;;;20.41;84.97;98309.63;1660289;84;28164;-85
2022/07/25 06:43:07;;;;;;;1.50;1.25;;;;;;;20.43;84.85;98310.29;1670925;84;28105;-84
2022/07/25 06:45:33;;;;;;;3.92;1.50;;;;;;;20.49;84.61;98304.78;1686810;83;28151;-87
2022/07/25 06:48:05;;;;;;;3.40;1.25;;;;;;;20.52;84.35;98302.59;1687870;82;28193;-87
2022/07/25 06:50:31;;;;;;;0.90;0.90;;;;;;;20.53;84.16;98302.09;1688474;82;28032;-86
2022/07/25 06:53:00;;;;;;;2.17;1.50;;;;;;;20.59;84.08;98292.11;1686675;84;28101;-87
2022/07/25 06:55:28;;;;;;;2.33;1.47;;;;;;;20.71;84.03;98296.04;1688612;83;28097;-85
2022/07/25 06:57:56;;;;;;;3.15;1.35;;;;;;;20.80;83.94;98294.98;1688482;83;28214;-84
2022/07/25 07:00:24;;;;;;;3.55;1.30;;;;;;;20.88;83.80;98298.44;1688298;83;28214;-84
2022/07/25 07:02:58;;;;;;;3.58;1.62;;;;;;;20.85;83.45;98297.94;1687504;83;28024;-85
2022/07/25 07:05:27;;;;;;;1.85;1.30;;;;;;;20.90;83.36;98296.91;1682918;83;28084;-85
2022/07/25 07:07:54;;;;;;;1.75;1.10;;;;;;;21.01;83.19;98291.19;1691973;83;28157;-85
2022/07/25 07:10:21;;;;;;;1.30;1.15;;;;;;;21.03;82.73;98293.68;1689873;82;28061;-85
2022/07/25 07:13:09;;;;;;;1.30;1.20;;;;;;;21.12;82.63;98284.13;1689293;83;28195;-85
2022/07/25 07:15:37;;;;;;;1.92;1.35;;;;;;;21.11;82.17;98285.66;1690390;83;28103;-84
2022/07/25 07:18:06;;;;;;;1.70;1.10;;;;;;;21.09;81.67;98279.67;1692226;82;28119;-84
2022/07/25 07:20:33;;;;;;;2.47;1.70;;;;;;;21.22;81.62;98279.95;1688490;83;28375;-86
2022/07/25 07:23:01;;;;;;;2.92;1.20;;;;;;;21.31;81.53;98279.37;1689981;83;28060;-87
2022/07/25 07:25:29;;;;;;;2.15;1.20;;;;;;;21.48;81.45;98279.57;1688517;83;28128;-88
2022/07/25 07:27:55;;;;;;;2.85;1.10;;;;;;;21.63;81.21;98280.42;1690426;83;28091;-87
2022/07/25 07:30:21;;;;;;;2.22;0.90;;;;;;;21.65;80.76;98280.58;1688508;83;28160;-84
2022/07/25 07:32:48;;;;;;;1.32;1.05;;;;;;;21.78;80.67;98269.28;1688652;83;28103;-88
2022/07/25 07:35:15;;;;;;;1.22;1.07;;;;;;;21.85;80.33;98266.22;1688319;83;28124;-88
2022/07/25 07:37:43;;;;;;;1.50;1.37;;;;;;;21.88;79.71;98261.84;1688325;83;28141;-85
2022/07/25 07:40:11;;;;;;;1.47;1.07;;;;;;;21.94;79.16;98262.48;1689076;82;28100;-85
2022/07/25 07:42:45;;;;;;;3.83;1.12;;;;;;;22.04;78.98;98264.37;1668383;82;28103;-87
2022/07/25 07:45:15;;;;;;;1.80;1.25;;;;;;;22.17;78.99;98263.73;1684605;83;28190;-88
2022/07/25 07:47:46;;;;;;;0.90;0.90;;;;;;;22.26;78.60;98255.12;1680472;83;28068;-88
2022/07/25 07:50:12;;;;;;;4.78;1.22;;;;;;;22.36;78.21;98253.02;1654371;85;28150;-88
2022/07/25 07:52:39;;;;;;;1.47;0.93;;;;;;;22.45;77.83;98251.89;1678757;83;28132;-89
2022/07/25 07:58:00;;;;;;;2.05;1.05;;;;;;;22.59;76.13;98256.36;1678203;83;28069;-86
2022/07/25 08:00:29;;;;;;;1.77;1.10;;;;;;;22.71;75.09;98252.70;1685251;84;28110;-87
2022/07/25 08:02:57;;;;;;;1.22;1.00;;;;;;;22.85;74.63;98250.05;1675289;83;28177;-86
2022/07/25 08:05:30;;;;;;;2.65;0.90;;;;;;;23.02;74.44;98249.27;1674191;83;28125;-86
2022/07/25 08:08:03;;;;;;;3.40;1.00;;;;;;;23.27;74.30;98246.54;1678186;83;28082;-85
2022/07/25 08:10:32;;;;;;;1.50;1.00;;;;;;;23.52;73.77;98248.30;1681227;83;28114;-86
2022/07/25 08:12:59;;;;;;;1.25;1.00;;;;;;;23.60;73.10;98245.51;1681427;83;28112;-85
2022/07/25 08:15:26;;;;;;;1.37;0.80;;;;;;;23.76;72.77;98240.37;1681727;83;28098;-85
2022/07/25 08:17:53;;;;;;;1.17;0.98;;;;;;;23.83;72.18;98235.91;1680725;83;28042;-86
2022/07/25 08:20:24;;;;;;;1.52;0.85;;;;;;;23.85;71.16;98239.70;1683096;83;28122;-85
2022/07/25 08:22:50;;;;;;;2.77;1.20;;;;;;;23.88;70.24;98235.31;1681087;83;28111;-87
2022/07/25 08:25:22;;;;;;;1.27;1.10;;;;;;;23.89;69.00;98233.80;1676451;83;28067;-87
2022/07/25 08:27:49;;;;;;;2.12;0.82;;;;;;;23.93;68.35;98236.89;1679901;83;28110;-89
2022/07/25 08:30:16;;;;;;;2.98;1.00;;;;;;;24.01;67.94;98234.87;1679155;83;28138;-86
2022/07/25 08:32:48;;;;;;;1.55;1.10;;;;;;;24.07;67.39;98236.75;1670523;83;28091;-85
2022/07/25 08:35:23;;;;;;;2.47;1.10;;;;;;;24.16;66.76;98226.23;1669104;83;28079;-89
2022/07/25 08:37:50;;;;;;;1.98;0.90;;;;;;;24.26;66.29;98227.73;1681379;83;28071;-89
2022/07/25 08:40:20;;;;;;;3.08;1.27;;;;;;;24.38;65.94;98224.81;1680127;83;28106;-86
2022/07/25 08:42:57;;;;;;;2.35;0.82;;;;;;;24.50;65.48;98228.03;1670671;83;28146;-89
2022/07/25 08:45:25;;;;;;;1.55;1.00;;;;;;;24.58;64.69;98225.19;1669175;83;28106;-89
2022/07/25 08:47:56;;;;;;;1.55;1.15;;;;;;;24.72;64.05;98219.34;1665569;84;27999;-89
2022/07/25 08:50:25;;;;;;;2.15;1.00;;;;;;;24.85;63.47;98218.56;1674044;84;28045;-89
2022/07/25 08:52:52;;;;;;;1.60;1.00;;;;;;;24.91;62.49;98216.45;1667835;84;28090;-85
2022/07/25 08:55:21;;;;;;;1.57;1.10;;;;;;;24.94;61.53;98207.99;1665870;84;28108;-84
2022/07/25 08:57:53;;;;;;;1.30;1.20;;;;;;;25.02;60.79;98217.70;1656869;84;28141;-85
2022/07/25 09:00:22;;;;;;;1.07;0.88;;;;;;;25.18;60.51;98215.45;1665323;84;28082;-89
2022/07/25 09:03:00;;;;;;;2.35;1.05;;;;;;;25.37;60.23;98210.59;1670872;84;28078;-87
2022/07/25 09:05:37;;;;;;;0.82;0.80;;;;;;;25.58;59.95;98204.77;1667005;85;28104;-87
2022/07/25 09:08:09;;;;;;;0.88;0.80;;;;;;;25.60;59.02;98201.34;1664151;85;28385;-89
2022/07/25 09:10:38;;;;;;;1.05;0.85;;;;;;;25.65;58.39;98200.20;1662052;85;28115;-87
2022/07/25 09:13:12;;;;;;;1.75;0.90;;;;;;;25.71;57.97;98196.69;1629603;86;28100;-87
2022/07/25 09:15:55;;;;;;;1.27;1.00;;;;;;;25.73;57.38;98195.46;1681879;83;28079;-89
2022/07/25 09:18:23;;;;;;;1.17;1.02;;;;;;;25.79;56.85;98193.80;1682986;83;28091;-87
2022/07/25 09:20:59;;;;;;;1.92;0.90;;;;;;;25.88;56.46;98199.23;1682342;83;28134;-87
2022/07/25 09:23:31;;;;;;;0.82;0.70;;;;;;;25.96;56.06;98200.36;1682514;83;28128;-89
2022/07/25 09:26:10;;;;;;;1.75;0.80;;;;;;;26.08;55.68;98185.75;1680334;83;28099;-84
2022/07/25 09:28:41;;;;;;;1.27;0.82;;;;;;;26.06;54.68;98189.19;1683408;83;28160;-87
2022/07/25 09:31:08;;;;;;;1.77;0.98;;;;;;;26.09;54.06;98183.38;1684539;83;28083;-87
2022/07/25 09:33:51;;;;;;;1.02;0.85;;;;;;;26.17;53.81;98183.98;1683896;83;28141;-87
2022/07/25 09:36:18;;;;;;;0.75;0.75;;;;;;;26.32;53.67;98183.73;1680545;83;28071;-84
2022/07/25 09:38:59;;;;;;;1.47;0.90;;;;;;;26.41;52.80;98180.28;1682388;83;28140;-87
2022/07/25 09:41:39;;;;;;;1.57;0.85;;;;;;;26.39;51.71;98174.33;1663644;84;28108;-85
2022/07/25 09:44:17;;;;;;;1.57;0.93;;;;;;;26.39;50.99;98177.01;1665737;82;28113;-85
2022/07/25 09:46:45;;;;;;;1.30;1.15;;;;;;;26.45;50.62;98170.79;1678867;83;28191;-87
2022/07/25 09:49:14;;;;;;;1.70;0.80;;;;;;;26.54;50.46;98173.00;1679170;83;28083;-87
2022/07/25 09:51:50;;;;;;;0.98;0.78;;;;;;;26.72;50.37;98170.94;1678928;83;28067;-87
2022/07/25 09:54:17;;;;;;;1.42;0.90;;;;;;;26.83;49.99;98166.73;1680965;83;28079;-86
2022/07/25 09:56:43;;;;;;;1.57;0.78;;;;;;;26.83;49.20;98162.71;1683201;85;28035;-85
2022/07/25 09:59:09;;;;;;;1.57;0.95;;;;;;;26.88;48.87;98160.23;1678963;83;28079;-89
2022/07/25 10:01:48;;;;;;;1.20;0.75;;;;;;;26.89;48.42;98158.67;1679682;84;28068;-85
2022/07/25 10:04:23;;;;;;;1.30;1.02;;;;;;;27.00;48.32;98156.59;1679321;83;28138;-89
2022/07/25 10:06:53;;;;;;;1.65;0.85;;;;;;;27.08;47.95;98160.89;1644549;84;28072;-87
2022/07/25 10:09:20;;;;;;;2.50;1.30;;;;;;;27.16;47.89;98160.63;1687005;83;28563;-87
2022/07/25 10:12:10;;;;;;;0.95;0.80;;;;;;;27.43;48.10;98144.57;1649678;84;28084;-88
2022/07/25 10:14:37;;;;;;;1.72;0.90;;;;;;;27.56;47.77;98147.66;1681398;83;28126;-85
2022/07/25 10:17:04;;;;;;;1.82;0.88;;;;;;;27.78;47.70;98147.53;1683479;83;28003;-85
2022/07/25 10:19:47;;;;;;;1.50;1.00;;;;;;;27.99;47.19;98146.26;1681479;83;28107;-85
2022/07/25 10:22:16;;;;;;;1.92;0.90;;;;;;;28.04;46.57;98143.71;1686785;83;28125;-88
2022/07/25 10:24:46;;;;;;;1.45;1.00;;;;;;;27.98;45.90;98139.78;1674426;83;28008;-87
2022/07/25 10:27:15;;;;;;;1.65;0.90;;;;;;;28.14;46.02;98139.20;1679201;83;28024;-85
2022/07/25 10:29:41;;;;;;;3.17;1.10;;;;;;;28.37;45.80;98137.14;1676758;83;28079;-89
2022/07/25 10:32:10;;;;;;;1.30;1.00;;;;;;;28.46;45.25;98133.89;1675699;83;28102;-85
2022/07/25 10:34:38;;;;;;;1.77;0.90;;;;;;;28.46;44.82;98124.47;1679449;83;28064;-89
2022/07/25 10:37:14;;;;;;;2.08;1.10;;;;;;;28.57;44.58;98121.00;1675383;83;28163;-85
2022/07/25 10:39:45;;;;;;;1.82;1.22;;;;;;;28.64;44.20;98120.88;1682133;83;28059;-87
2022/07/25 10:42:13;;;;;;;2.17;0.88;;;;;;;28.55;43.72;98117.70;1699224;83;28244;-85
2022/07/25 10:44:47;;;;;;;2.95;1.05;;;;;;;28.58;43.63;98116.44;1690084;83;28039;-85
2022/07/25 10:47:14;;;;;;;1.45;0.98;;;;;;;28.72;43.62;98113.83;1686325;83;28070;-85
2022/07/25 10:49:44;;;;;;;1.72;0.88;;;;;;;28.76;43.22;98107.48;1683082;83;28103;-89
2022/07/25 10:52:18;;;;;;;2.20;1.07;;;;;;;28.72;42.79;98112.48;1678972;83;28016;-88
2022/07/25 10:54:57;;;;;;;1.37;0.90;;;;;;;28.66;42.24;98108.84;1686785;83;28161;-85
2022/07/25 10:57:23;;;;;;;1.52;1.00;;;;;;;28.49;41.62;98103.81;1684420;83;28152;-85
2022/07/25 10:59:54;;;;;;;1.77;1.00;;;;;;;28.41;41.31;98103.33;1686036;83;28192;-87
2022/07/25 11:02:18;;;;;;;2.35;0.90;;;;;;;28.35;41.00;98101.02;1681873;83;28051;-87
2022/07/25 11:05:00;;;;;;;1.40;1.00;;;;;;;28.34;40.88;98096.68;1682961;83;28097;-85
2022/07/25 11:07:27;;;;;;;1.20;0.95;;;;;;;28.40;40.83;98097.12;1686254;83;28094;-88
2022/07/25 11:10:00;;;;;;;1.65;1.07;;;;;;;28.50;40.72;98095.20;1681112;83;28104;-88
2022/07/25 11:12:30;;;;;;;2.20;1.12;;;;;;;28.63;40.79;98092.33;1682865;83;28168;-86
2022/07/25 11:15:05;;;;;;;1.77;1.35;;;;;;;28.76;40.56;98084.58;1687186;83;28125;-90
2022/07/25 11:17:31;;;;;;;2.62;0.95;;;;;;;28.98;40.89;98087.84;1657625;84;28053;-89
2022/07/25 11:20:00;;;;;;;1.10;0.98;;;;;;;29.09;40.49;98086.20;1695718;84;28076;-86
2022/07/25 11:22:35;;;;;;;1.10;1.00;;;;;;;29.13;40.42;98084.67;1694849;83;28074;-85
2022/07/25 11:25:11;;;;;;;2.65;0.90;;;;;;;29.26;40.36;98080.41;1688165;83;28089;-85
2022/07/25 11:27:37;;;;;;;4.40;0.90;;;;;;;29.35;40.18;98072.83;1679815;83;28072;-86
2022/07/25 11:30:13;;;;;;;1.70;1.60;;;;;;;29.48;40.13;98065.83;1673282;83;28138;-85
2022/07/25 11:32:45;;;;;;;2.15;1.12;;;;;;;29.65;40.08;98061.87;1685971;83;27999;-90
2022/07/25 11:35:15;;;;;;;1.07;0.98;;;;;;;29.86;40.08;98055.83;1694227;83;28034;-88
2022/07/25 11:37:47;;;;;;;2.22;1.05;;;;;;;30.05;40.20;98052.46;1685884;84;28093;-88
2022/07/25 11:40:15;;;;;;;1.42;1.20;;;;;;;29.97;39.77;98048.25;1693266;82;28118;-85
2022/07/25 11:42:55;;;;;;;2.08;1.10;;;;;;;30.02;39.80;98048.34;1696886;82;27999;-86
2022/07/25 11:45:27;;;;;;;1.27;1.02;;;;;;;30.05;39.41;98047.89;1681658;82;28012;-89